Terminal Aerodrome Forecast
Issued by NWS

Home | Current Version | Previous Version | Text Only | Print | Product List | Glossary On
Versions: 1 2 3 4 5 6 7 8 9 10 11 12 13 14 15 16 17 18 19 20 21 22 23 24 25 26 27 28 29 30 31
000
FTUS43 KDLH 211138
TAFHYR
TAF
KHYR 211138Z 2112/2212 10003KT 3SM -DZ BR OVC004
      TEMPO 2113/2116 1 1/2SM -DZ BR OVC003
     FM211600 09004KT 2SM -RA BR OVC004
     FM212100 VRB03KT 1 1/2SM -DZ BR OVC003
     FM220500 00000KT 1/2SM -DZ FG VV003=

USA.gov is the U.S. government's official web portal to all federal, state and local government web resources and services.